Time;durP1;ratioP1;P1;durP2;ratioP2;P2;SDS_P1;SDS_P2;PMS_P1;PMS_P2;Temp;Humidity;BMP_temperature;BMP_pressure;BME280_temperature;BME280_humidity;BME280_pressure;Samples;Min_cycle;Max_cycle;Signal;HPM_P1;HPM_P2
2022/02/09 00:03:07;;;;;;;9.50;4.22;;;;;;;-0.05;96.79;99745.50;1770122;81;21179;-79
2022/02/09 00:06:05;;;;;;;9.53;5.00;;;;;;;-0.05;95.45;99739.23;1753131;81;21180;-79
2022/02/09 00:09:07;;;;;;;10.30;5.62;;;;;;;-0.03;94.84;99741.34;1770219;80;21361;-79
2022/02/09 00:12:21;;;;;;;13.78;6.30;;;;;;;-0.01;94.54;99742.05;1784058;80;21294;-78
2022/02/09 00:15:35;;;;;;;17.32;6.97;;;;;;;0.00;94.01;99739.75;1784018;80;21309;-78
2022/02/09 00:18:51;;;;;;;16.57;6.30;;;;;;;0.01;93.42;99739.27;1782873;80;21769;-78
2022/02/09 00:41:36;;;;;;;14.83;7.60;;;;;;;-0.05;90.07;99748.19;1783682;80;21303;-81
2022/02/09 01:58:17;;;;;;;37.98;16.32;;;;;;;-0.84;90.84;99742.34;1738429;82;21413;-79
2022/02/09 02:01:23;;;;;;;30.88;15.68;;;;;;;-0.86;91.10;99747.80;1712264;82;21197;-79
2022/02/09 02:04:28;;;;;;;28.17;14.53;;;;;;;-0.89;90.98;99745.38;1721573;82;21244;-79
2022/02/09 02:07:47;;;;;;;27.35;14.00;;;;;;;-0.88;91.09;99751.10;1736389;82;21212;-79
2022/02/09 02:14:00;;;;;;;32.10;13.48;;;;;;;-0.92;91.05;99750.11;1745900;82;21314;-78
2022/02/09 02:20:14;;;;;;;26.60;14.43;;;;;;;-0.94;91.20;99756.06;1744776;82;21784;-78
2022/02/09 02:23:43;;;;;;;24.52;13.30;;;;;;;-0.93;91.36;99755.12;1757615;81;21295;-78
2022/02/09 02:33:44;;;;;;;28.90;14.98;;;;;;;-0.96;91.68;99756.20;1746310;82;21201;-78
2022/02/09 02:36:57;;;;;;;35.23;14.93;;;;;;;-1.00;91.61;99753.37;1746246;82;21315;-78
2022/02/09 02:46:34;;;;;;;18.50;9.50;;;;;;;-1.07;91.50;99764.22;1745820;82;21302;-80
2022/02/09 03:13:06;;;;;;;12.47;8.10;;;;;;;-1.33;90.59;99760.78;1737574;82;21338;-78
2022/02/09 03:16:14;;;;;;;15.43;9.10;;;;;;;-1.37;90.22;99772.22;1769208;81;21697;-78
2022/02/09 03:22:27;;;;;;;25.45;9.80;;;;;;;-1.40;89.66;99767.11;1733665;82;21280;-78
2022/02/09 03:58:39;;;;;;;26.00;11.38;;;;;;;-1.56;86.32;99770.53;1754051;79;21399;-78
2022/02/09 04:01:45;;;;;;;19.67;9.88;;;;;;;-1.57;86.07;99764.80;1732022;82;21173;-78
2022/02/09 04:04:56;;;;;;;22.98;10.60;;;;;;;-1.53;86.08;99767.63;1801697;79;21197;-78
2022/02/09 04:08:00;;;;;;;24.67;10.68;;;;;;;-1.52;85.93;99769.34;1762261;81;21295;-78
2022/02/09 04:11:11;;;;;;;23.42;10.30;;;;;;;-1.52;85.89;99774.70;1732615;82;21343;-78
2022/02/09 04:14:28;;;;;;;24.12;9.85;;;;;;;-1.51;86.02;99780.44;1728915;82;21220;-77
2022/02/09 04:50:39;;;;;;;40.78;16.12;;;;;;;-1.61;86.97;99806.22;1783504;79;21163;-74
2022/02/09 04:57:13;;;;;;;30.10;13.53;;;;;;;-1.59;86.95;99812.34;1783424;80;21889;-84
2022/02/09 05:00:31;;;;;;;28.87;12.88;;;;;;;-1.58;86.87;99807.34;1784989;80;21157;-84
2022/02/09 05:04:06;;;;;;;33.45;14.05;;;;;;;-1.58;86.86;99809.55;1785172;80;21825;-76
2022/02/09 05:27:02;;;;;;;13.53;8.05;;;;;;;-1.68;87.99;99835.80;1770782;80;21208;-83
2022/02/09 05:29:48;;;;;;;18.17;6.65;;;;;;;-1.60;88.40;99836.09;1779227;80;21276;-83
2022/02/09 05:32:54;;;;;;;8.40;5.85;;;;;;;-1.47;88.60;99833.38;1770233;79;21295;-74
2022/02/09 05:35:59;;;;;;;11.48;5.60;;;;;;;-1.34;88.51;99834.21;1773988;80;21309;-83
2022/02/09 05:39:05;;;;;;;9.08;4.50;;;;;;;-1.25;88.35;99832.20;1767594;80;21868;-75
2022/02/09 05:42:10;;;;;;;8.60;5.05;;;;;;;-1.15;88.32;99837.73;1782734;80;21836;-75
2022/02/09 05:45:17;;;;;;;11.20;4.40;;;;;;;-1.08;88.25;99845.72;1780873;80;21849;-83
2022/02/09 05:49:10;;;;;;;8.90;5.25;;;;;;;-1.00;88.25;99839.28;1761713;80;21889;-82
2022/02/09 05:51:45;;;;;;;6.08;4.15;;;;;;;-0.93;88.14;99845.06;1761440;80;21272;-75
2022/02/09 05:57:52;;;;;;;6.35;3.95;;;;;;;-0.94;87.98;99855.41;1775713;80;21797;-74
2022/02/09 06:00:55;;;;;;;8.03;3.80;;;;;;;-0.91;88.01;99862.75;1780296;79;21153;-74
2022/02/09 06:04:02;;;;;;;6.42;3.83;;;;;;;-0.90;88.11;99867.15;1777730;80;21272;-84
2022/02/09 06:07:08;;;;;;;6.28;3.75;;;;;;;-0.87;88.26;99879.50;1780167;80;21567;-75
2022/02/09 06:10:18;;;;;;;8.08;3.35;;;;;;;-0.87;88.47;99880.36;1776183;80;22043;-84
2022/02/09 06:13:49;;;;;;;7.80;3.83;;;;;;;-0.83;88.64;99879.65;1770138;80;21892;-83
2022/02/09 06:19:55;;;;;;;6.40;3.55;;;;;;;-0.74;88.51;99878.97;1771292;80;21183;-80
2022/02/09 06:23:01;;;;;;;6.53;3.70;;;;;;;-0.72;88.43;99879.69;1773065;80;21286;-82
2022/02/09 06:26:09;;;;;;;7.30;3.87;;;;;;;-0.71;88.22;99883.23;1772358;80;21188;-83
2022/02/09 06:29:14;;;;;;;6.22;3.47;;;;;;;-0.67;87.93;99890.09;1703776;82;22117;-75
2022/02/09 06:32:22;;;;;;;6.25;3.45;;;;;;;-0.61;87.99;99883.79;1718194;82;21370;-83
2022/02/09 06:35:27;;;;;;;5.20;3.20;;;;;;;-0.50;87.73;99894.20;1731964;82;21299;-75
2022/02/09 06:38:38;;;;;;;5.87;3.12;;;;;;;-0.43;87.22;99888.72;1700094;83;21884;-75
2022/02/09 06:41:42;;;;;;;6.47;3.20;;;;;;;-0.31;87.01;99881.08;1698958;82;21919;-75
2022/02/09 06:44:49;;;;;;;7.65;4.05;;;;;;;-0.17;86.55;99883.56;1707091;83;21457;-75
2022/02/09 06:47:54;;;;;;;6.62;4.05;;;;;;;0.05;86.29;99891.29;1703407;83;21343;-76
2022/02/09 06:51:05;;;;;;;5.90;3.15;;;;;;;0.22;85.37;99885.45;1699143;83;22272;-75
2022/02/09 06:54:16;;;;;;;5.85;2.98;;;;;;;0.31;84.70;99893.30;1697727;83;21988;-75
2022/02/09 06:57:32;;;;;;;6.90;3.50;;;;;;;0.34;84.58;99894.41;1700989;82;21166;-83
2022/02/09 07:00:28;;;;;;;4.87;3.35;;;;;;;0.39;84.39;99904.31;1698331;83;21965;-84
2022/02/09 07:03:33;;;;;;;;;;;;;;;0.41;83.85;99895.63;1678512;83;21902;-83
2022/02/09 07:06:38;;;;;;;6.35;3.27;;;;;;;0.44;84.03;99894.89;1698961;83;20754;-75
2022/02/09 07:09:44;;;;;;;5.50;2.98;;;;;;;0.57;83.99;99893.93;1699491;83;21305;-84
2022/02/09 07:12:51;;;;;;;7.30;2.72;;;;;;;0.70;83.99;99888.75;1712524;81;21361;-75
2022/02/09 07:16:04;;;;;;;10.20;3.27;;;;;;;0.90;83.67;99891.20;1724243;82;21561;-75
2022/02/09 07:19:08;;;;;;;4.08;2.85;;;;;;;1.02;83.32;99892.88;1699839;83;21351;-86
2022/02/09 07:22:22;;;;;;;4.20;2.62;;;;;;;1.15;83.03;99899.96;1685454;82;21881;-86
2022/02/09 07:25:30;;;;;;;8.98;3.17;;;;;;;1.21;82.06;99902.99;1691974;82;21550;-86
2022/02/09 07:28:28;;;;;;;9.55;2.95;;;;;;;1.17;81.45;99912.80;1699247;82;21745;-76
2022/02/09 07:31:33;;;;;;;11.48;2.62;;;;;;;1.10;81.18;99915.16;1697185;82;21739;-85
2022/02/09 07:34:39;;;;;;;23.85;4.37;;;;;;;1.03;81.09;99917.97;1719605;82;21616;-76
2022/02/09 07:37:45;;;;;;;4.00;2.45;;;;;;;0.96;81.20;99916.77;1714810;82;21323;-85
2022/02/09 07:40:56;;;;;;;7.08;2.83;;;;;;;0.88;81.25;99935.38;1723282;82;21277;-76
2022/02/09 07:47:22;;;;;;;6.72;3.02;;;;;;;0.72;82.34;99933.92;1723062;81;21341;-76
2022/02/09 07:50:30;;;;;;;6.65;3.02;;;;;;;0.74;82.99;99933.30;1719393;82;21296;-76
2022/02/09 07:53:26;;;;;;;6.20;3.10;;;;;;;0.78;82.86;99935.76;1698681;82;22049;-86
2022/02/09 07:56:33;;;;;;;10.43;3.75;;;;;;;0.80;82.69;99931.98;1715148;81;21177;-86
2022/02/09 07:59:46;;;;;;;5.92;3.08;;;;;;;0.82;82.77;99933.19;1719548;81;21197;-86
2022/02/09 08:02:58;;;;;;;19.32;3.80;;;;;;;0.85;82.50;99934.27;1723821;81;21233;-85
2022/02/09 08:06:07;;;;;;;8.53;4.58;;;;;;;0.87;82.37;99938.56;1719280;81;21146;-87
2022/02/09 08:09:27;;;;;;;6.97;3.58;;;;;;;0.91;82.25;99935.14;1704576;82;21303;-85
2022/02/09 08:12:52;;;;;;;8.48;3.87;;;;;;;0.96;81.66;99934.28;1721190;82;21291;-86
2022/02/09 08:28:49;;;;;;;5.03;2.50;;;;;;;1.14;80.71;99931.93;1718355;82;21927;-83
2022/02/09 08:35:09;;;;;;;5.50;2.85;;;;;;;1.32;79.66;99926.38;1722468;82;21186;-85
2022/02/09 08:38:14;;;;;;;6.87;3.33;;;;;;;1.44;79.68;99936.62;1719563;82;21292;-84
2022/02/09 08:41:19;;;;;;;5.70;3.35;;;;;;;1.51;78.37;99940.53;1727615;83;21793;-85
2022/02/09 08:44:24;;;;;;;6.78;3.02;;;;;;;1.53;77.52;99938.06;1704666;82;21335;-76
2022/02/09 08:47:30;;;;;;;5.53;3.08;;;;;;;1.54;77.20;99941.61;1710846;82;21311;-76
2022/02/09 08:50:36;;;;;;;6.85;2.50;;;;;;;1.57;77.22;99934.63;1704819;83;21292;-76
2022/02/09 08:53:42;;;;;;;5.90;2.30;;;;;;;1.63;76.92;99940.84;1707195;82;21323;-75
2022/02/09 08:56:49;;;;;;;7.60;2.80;;;;;;;1.66;76.58;99945.98;1710758;82;21335;-75
2022/02/09 08:59:56;;;;;;;4.03;2.12;;;;;;;1.73;76.33;99947.66;1712423;83;21774;-76
2022/02/09 09:06:24;;;;;;;7.62;4.37;;;;;;;1.78;75.41;99954.87;1718003;83;21801;-76
2022/02/09 09:09:45;;;;;;;7.72;3.27;;;;;;;1.78;75.87;99945.44;1706155;83;21210;-77
2022/02/09 10:02:57;;;;;;;17.82;8.35;;;;;;;2.36;77.79;99916.69;1730097;82;21180;-75
2022/02/09 10:33:16;;;;;;;18.23;8.60;;;;;;;3.21;80.22;99921.22;1715212;83;21892;-85
2022/02/09 10:36:22;;;;;;;18.62;8.05;;;;;;;3.30;79.71;99922.23;1722544;81;21288;-85
2022/02/09 10:39:44;;;;;;;15.03;7.60;;;;;;;3.35;78.99;99924.02;1737950;82;21267;-76
2022/02/09 10:42:55;;;;;;;16.48;7.42;;;;;;;3.43;79.24;99926.00;1706945;81;21590;-85
2022/02/09 10:45:56;;;;;;;17.42;8.28;;;;;;;3.57;79.25;99926.95;1756360;81;21268;-84
2022/02/09 10:49:02;;;;;;;17.73;8.15;;;;;;;3.66;79.44;99928.81;1761088;81;21268;-84
2022/02/09 10:52:16;;;;;;;22.48;8.00;;;;;;;3.74;79.41;99930.81;1758657;79;21267;-84
2022/02/09 10:55:40;;;;;;;17.62;7.20;;;;;;;3.85;79.77;99932.02;1756105;81;21289;-84
2022/02/09 10:58:47;;;;;;;13.45;6.78;;;;;;;3.95;79.73;99932.02;1762988;79;21341;-84
2022/02/09 11:01:52;;;;;;;15.40;6.78;;;;;;;4.08;78.70;99928.02;1762743;81;21667;-75
2022/02/09 11:04:58;;;;;;;18.95;8.65;;;;;;;4.16;78.13;99934.08;1756223;79;21865;-83
2022/02/09 11:08:05;;;;;;;15.53;7.35;;;;;;;4.19;77.99;99934.27;1757341;81;21296;-84
2022/02/09 11:11:13;;;;;;;20.45;7.92;;;;;;;4.25;77.75;99937.27;1754774;79;21705;-76
2022/02/09 11:14:25;;;;;;;13.45;6.97;;;;;;;4.25;77.35;99940.48;1761556;79;21782;-76
2022/02/09 11:17:32;;;;;;;13.58;7.37;;;;;;;4.15;77.66;99940.50;1717980;82;21506;-84
2022/02/09 11:20:38;;;;;;;13.40;6.87;;;;;;;4.03;76.88;99941.63;1758094;81;21266;-80
2022/02/09 11:24:07;;;;;;;16.20;6.58;;;;;;;3.87;76.35;99940.02;1753967;79;21840;-84
2022/02/09 11:30:42;;;;;;;15.48;7.17;;;;;;;3.54;76.78;99952.44;1691525;84;21314;-76
2022/02/09 11:34:05;;;;;;;12.13;6.97;;;;;;;3.53;77.83;99962.05;1758126;81;21762;-76
2022/02/09 11:37:26;;;;;;;17.57;7.85;;;;;;;3.53;78.42;99962.91;1758878;79;21173;-76
2022/02/09 11:41:07;;;;;;;19.92;8.28;;;;;;;3.45;78.69;99964.59;1754139;81;21270;-76
2022/02/09 11:44:19;;;;;;;13.30;7.70;;;;;;;3.39;78.90;99967.83;1776610;80;21327;-76
2022/02/09 12:11:11;;;;;;;18.55;9.03;;;;;;;3.25;80.51;99979.42;1773307;80;21907;-76
2022/02/09 12:20:35;;;;;;;19.75;9.20;;;;;;;3.10;82.19;99992.92;1733458;80;21252;-84
2022/02/09 12:23:42;;;;;;;15.00;8.45;;;;;;;3.06;82.77;99991.52;1762841;80;22196;-84
2022/02/09 12:27:07;;;;;;;20.17;9.55;;;;;;;3.08;82.73;99992.22;1771762;79;21303;-84
2022/02/09 12:30:14;;;;;;;21.20;9.28;;;;;;;3.08;82.75;99992.22;1775344;80;21939;-84
2022/02/09 12:33:28;;;;;;;26.60;8.53;;;;;;;2.99;82.68;99990.33;1771271;80;21715;-84
2022/02/09 12:36:33;;;;;;;19.95;11.28;;;;;;;2.98;83.21;99992.18;1770124;79;22151;-84
2022/02/09 12:39:38;;;;;;;22.42;10.68;;;;;;;3.01;83.79;99995.97;1771944;80;21753;-84
2022/02/09 12:42:48;;;;;;;24.57;12.58;;;;;;;3.07;84.19;100005.38;1756613;79;21247;-84
2022/02/09 12:45:56;;;;;;;16.25;7.30;;;;;;;3.01;84.26;100008.59;1757784;81;21267;-84
2022/02/09 12:49:01;;;;;;;18.00;8.33;;;;;;;2.95;83.84;100013.20;1756979;81;21292;-83
2022/02/09 12:52:06;;;;;;;12.73;7.30;;;;;;;2.84;83.86;100014.65;1760764;79;21284;-84
2022/02/09 12:55:27;;;;;;;18.62;8.60;;;;;;;2.70;84.51;100018.05;1758989;81;21286;-84
2022/02/09 12:58:31;;;;;;;15.68;8.93;;;;;;;2.58;85.40;100019.10;1760585;80;21271;-84
2022/02/09 13:01:59;;;;;;;14.78;8.13;;;;;;;2.48;86.05;100037.09;1755911;81;21358;-83
2022/02/09 13:05:09;;;;;;;23.15;10.43;;;;;;;2.49;86.62;100031.58;1757736;81;21307;-76
2022/02/09 13:08:15;;;;;;;21.40;11.15;;;;;;;2.45;86.64;100031.97;1758475;79;21290;-76
2022/02/09 13:11:30;;;;;;;23.18;10.80;;;;;;;2.36;86.79;100034.10;1759784;80;21314;-76
2022/02/09 13:14:40;;;;;;;26.02;11.57;;;;;;;2.31;87.29;100034.49;1758516;81;21141;-76
2022/02/09 14:17:03;;;;;;;30.43;13.90;;;;;;;2.14;92.14;100072.33;1739067;81;21311;-84
2022/02/09 14:53:02;;;;;;;38.78;18.95;;;;;;;2.13;94.74;100104.36;1768855;80;21295;-82
2022/02/09 14:56:37;;;;;;;45.25;18.80;;;;;;;2.18;94.70;100107.52;1776021;80;21283;-76
2022/02/09 15:09:33;;;;;;;41.35;16.87;;;;;;;2.27;94.58;100128.35;1777642;80;21841;-75
2022/02/09 15:12:31;;;;;;;41.15;19.17;;;;;;;2.32;94.49;100132.52;1777798;80;21302;-83
2022/02/09 15:15:50;;;;;;;40.03;19.50;;;;;;;2.35;94.45;100134.94;1778687;80;21892;-75
2022/02/09 15:19:09;;;;;;;38.50;17.67;;;;;;;2.41;94.45;100141.19;1779214;80;21801;-73
2022/02/09 15:22:10;;;;;;;43.92;19.67;;;;;;;2.43;94.23;100137.86;1777759;79;21224;-75
2022/02/09 15:25:17;;;;;;;37.65;18.02;;;;;;;2.46;94.03;100151.11;1777692;80;21860;-74
2022/02/09 15:28:22;;;;;;;36.63;19.40;;;;;;;2.44;93.94;100157.11;1777515;80;21275;-82
2022/02/09 15:31:44;;;;;;;38.05;17.92;;;;;;;2.42;93.94;100151.00;1778104;80;21833;-76
2022/02/09 15:34:46;;;;;;;31.10;16.37;;;;;;;2.44;93.98;100158.47;1778272;80;21821;-75
2022/02/09 15:37:56;;;;;;;39.70;19.57;;;;;;;2.45;93.95;100161.05;1778522;80;21188;-76
2022/02/09 15:56:17;;;;;;;36.33;19.32;;;;;;;2.47;93.95;100164.47;1779537;80;21818;-83
2022/02/09 15:58:36;;;;;;;36.45;15.85;;;;;;;2.54;93.69;100186.41;1751856;79;21915;-75
2022/02/09 16:11:03;;;;;;;40.52;19.32;;;;;;;2.51;93.92;100200.19;1734647;82;22040;-83
2022/02/09 16:24:26;;;;;;;46.37;22.62;;;;;;;2.33;94.95;100211.15;1734293;82;21872;-75
2022/02/09 16:37:46;;;;;;;47.40;23.77;;;;;;;2.05;98.28;100226.88;1732856;82;21354;-76
2022/02/09 16:44:19;;;;;;;47.65;20.65;;;;;;;2.01;99.51;100225.41;1734284;79;21271;-76
2022/02/09 16:48:03;;;;;;;39.48;20.60;;;;;;;1.99;99.88;100224.20;1734250;81;21892;-83
2022/02/09 16:50:25;;;;;;;38.88;20.20;;;;;;;1.97;100.00;100226.64;1735239;82;21260;-76
2022/02/09 16:56:58;;;;;;;39.20;20.43;;;;;;;1.94;100.00;100227.76;1744181;82;21238;-84
2022/02/09 17:20:17;;;;;;;35.95;20.32;;;;;;;1.97;100.00;100254.96;1776646;81;21711;-76
2022/02/09 17:23:23;;;;;;;40.63;21.93;;;;;;;1.97;100.00;100259.01;1776514;81;21866;-83
2022/02/09 17:26:29;;;;;;;35.65;19.52;;;;;;;2.00;100.00;100266.87;1776265;81;21287;-76
2022/02/09 17:30:02;;;;;;;33.83;20.90;;;;;;;2.01;100.00;100265.38;1746501;79;21192;-82
2022/02/09 17:36:13;;;;;;;36.48;20.68;;;;;;;2.04;100.00;100274.59;1745820;82;21271;-76
2022/02/09 17:56:23;;;;;;;29.20;18.15;;;;;;;2.11;100.00;100280.84;1732068;82;21339;-84
2022/02/09 17:59:24;;;;;;;28.95;19.42;;;;;;;2.13;100.00;100282.45;1732916;79;21327;-83
2022/02/09 18:02:31;;;;;;;34.35;19.00;;;;;;;2.14;100.00;100280.60;1752239;81;21217;-84
2022/02/09 18:05:49;;;;;;;32.55;18.95;;;;;;;2.17;100.00;100289.32;1751939;79;21712;-84
2022/02/09 18:12:19;;;;;;;33.95;19.35;;;;;;;2.18;100.00;100294.22;1769277;81;21779;-84
2022/02/09 18:15:41;;;;;;;29.92;17.12;;;;;;;2.14;100.00;100284.16;1769249;81;21280;-84
2022/02/09 18:32:05;;;;;;;31.05;16.90;;;;;;;2.32;100.00;100307.96;1733129;82;21302;-85
2022/02/09 18:37:46;;;;;;;30.20;17.62;;;;;;;2.35;100.00;100306.34;1733043;82;21283;-83
2022/02/09 18:44:53;;;;;;;27.15;15.75;;;;;;;2.38;100.00;100327.70;1733295;82;21273;-83
2022/02/09 19:05:03;;;;;;;23.10;13.30;;;;;;;2.41;100.00;100330.17;1749013;82;21302;-75
2022/02/09 19:14:48;;;;;;;22.20;13.80;;;;;;;2.42;99.94;100349.42;1749212;80;21275;-83
2022/02/09 19:30:55;;;;;;;19.50;11.97;;;;;;;2.34;99.88;100366.72;1724498;82;21792;-83
2022/02/09 19:44:51;;;;;;;24.70;10.58;;;;;;;2.20;100.00;100390.75;1690154;82;21350;-76
2022/02/09 19:47:18;;;;;;;20.10;9.90;;;;;;;2.23;100.00;100390.52;1749442;82;21265;-74
2022/02/09 19:50:45;;;;;;;29.07;10.63;;;;;;;2.26;100.00;100399.73;1748852;82;21800;-76
2022/02/09 19:53:39;;;;;;;32.20;9.65;;;;;;;2.23;100.00;100410.27;1753448;82;21148;-85
2022/02/09 19:56:34;;;;;;;14.20;9.05;;;;;;;2.23;100.00;100398.12;1753302;82;21302;-84
2022/02/09 19:59:41;;;;;;;14.87;8.65;;;;;;;2.20;100.00;100399.70;1753734;82;22124;-75
2022/02/09 20:02:47;;;;;;;18.87;9.53;;;;;;;2.11;100.00;100399.08;1752126;82;21302;-84
2022/02/09 20:05:54;;;;;;;13.70;7.87;;;;;;;2.05;100.00;100393.67;1752863;82;21303;-75
2022/02/09 20:09:02;;;;;;;12.68;7.75;;;;;;;2.04;100.00;100399.20;1752161;82;21196;-76
2022/02/09 20:12:08;;;;;;;17.30;8.45;;;;;;;1.99;100.00;100402.75;1752832;82;21318;-76
2022/02/09 20:15:17;;;;;;;15.20;8.60;;;;;;;1.97;100.00;100407.39;1753579;82;21315;-80
2022/02/09 20:18:23;;;;;;;13.75;8.30;;;;;;;1.95;100.00;100409.36;1733103;82;21773;-83
2022/02/09 20:21:30;;;;;;;15.20;7.97;;;;;;;1.92;100.00;100409.59;1753352;82;21302;-83
2022/02/09 20:24:36;;;;;;;14.93;8.20;;;;;;;1.91;100.00;100411.42;1753414;82;21278;-81
2022/02/09 20:27:42;;;;;;;12.37;7.00;;;;;;;1.92;100.00;100402.84;1758179;80;21279;-76
2022/02/09 20:30:55;;;;;;;15.35;7.75;;;;;;;1.94;100.00;100411.69;1784269;80;21336;-75
2022/02/09 20:34:01;;;;;;;12.68;6.97;;;;;;;1.94;100.00;100413.04;1784206;80;21204;-75
2022/02/09 20:37:06;;;;;;;14.10;7.45;;;;;;;1.94;100.00;100414.39;1783703;80;21185;-76
2022/02/09 20:40:24;;;;;;;16.87;7.50;;;;;;;1.92;100.00;100413.14;1784276;80;21300;-83
2022/02/09 20:43:31;;;;;;;13.48;8.23;;;;;;;1.93;100.00;100412.64;1784365;80;21286;-74
2022/02/09 20:46:36;;;;;;;15.53;7.50;;;;;;;1.94;100.00;100415.73;1784274;79;21651;-81
2022/02/09 20:49:41;;;;;;;13.38;7.85;;;;;;;1.92;100.00;100413.63;1784446;80;21286;-75
2022/02/09 20:52:46;;;;;;;14.98;7.83;;;;;;;1.89;100.00;100416.59;1775828;79;21307;-83
2022/02/09 20:55:52;;;;;;;12.23;6.22;;;;;;;1.87;100.00;100414.47;1770707;81;21268;-76
2022/02/09 20:59:02;;;;;;;15.13;6.80;;;;;;;1.86;99.89;100424.91;1744825;81;21720;-82
2022/02/09 21:02:19;;;;;;;12.10;6.55;;;;;;;1.86;99.73;100428.45;1734443;82;21311;-84
2022/02/09 21:05:31;;;;;;;13.53;5.62;;;;;;;1.88;99.49;100429.67;1734356;82;21198;-76
2022/02/09 21:18:54;;;;;;;10.90;6.30;;;;;;;1.92;98.57;100439.26;1734359;82;21307;-83
2022/02/09 21:25:07;;;;;;;12.53;6.17;;;;;;;1.99;98.27;100447.27;1732827;82;21240;-76
2022/02/09 21:55:10;;;;;;;12.15;5.60;;;;;;;2.07;95.96;100465.08;1750391;82;21306;-83
2022/02/09 21:58:02;;;;;;;10.00;4.95;;;;;;;2.04;95.84;100458.56;1759488;79;21833;-84
2022/02/09 22:01:29;;;;;;;14.50;5.92;;;;;;;2.02;95.74;100471.29;1747482;82;21271;-84
2022/02/09 22:25:43;;;;;;;13.08;5.05;;;;;;;1.92;94.41;100498.61;1747757;82;21350;-80
2022/02/09 22:27:46;;;;;;;9.58;4.40;;;;;;;1.91;94.13;100491.00;1747223;82;21325;-76
2022/02/09 22:54:31;;;;;;;8.00;4.03;;;;;;;1.87;92.78;100506.19;1743142;81;21302;-82
2022/02/09 22:58:20;;;;;;;9.53;4.28;;;;;;;1.84;92.77;100513.19;1739238;81;21177;-75
2022/02/09 23:13:49;;;;;;;10.13;3.37;;;;;;;1.83;92.06;100512.79;1692773;83;21290;-82
2022/02/09 23:23:47;;;;;;;8.23;3.42;;;;;;;1.75;91.84;100511.55;1745027;82;21298;-75
2022/02/09 23:54:05;;;;;;;6.85;2.77;;;;;;;1.70;92.31;100541.19;1733117;83;21201;-75
